KOWD/OWD METAR and TAF weather

Enter ICAO airport designator
Station Type Date Time Source
KOWD METAR 2020/12/05 05:53 UTC NOAA

KOWD 050553Z AUTO 19004KT 10SM SCT090 SCT110 08/06 A2990 RMK AO2 SLP125 60004 T00830056 10122 20083 $


Station Type Date Time Source
KOWD Decoded METAR 2020/12/05 05:53 UTC NOAA

NORWOOD MEMORIAL AIRPORT, MA, United States (KOWD) 42-11N 71-10W 19M
Dec 05, 2020 - 12:53 AM EST / 2020.12.05 0553 UTC
Wind: from the S (190 degrees) at 5 MPH (4 KT):0
Visibility: 10 mile(s):0
Sky conditions: partly cloudy
Temperature: 46.9 F (8.3 C)
Dew Point: 42.1 F (5.6 C)
Relative Humidity: 83%
Pressure (altimeter): 29.9 in. Hg (1012 hPa)
ob: KOWD 050553Z AUTO 19004KT 10SM SCT090 SCT110 08/06 A2990 RMK AO2 SLP125 60004 T00830056 10122 20083
cycle: 6

Station Type Date Time Source
KOWD TAF UTC NOAA

Error!

Example: see airport list